Time;durP1;ratioP1;P1;durP2;ratioP2;P2;SDS_P1;SDS_P2;PMS_P1;PMS_P2;Temp;Humidity;BMP_temperature;BMP_pressure;BME280_temperature;BME280_humidity;BME280_pressure;Samples;Min_cycle;Max_cycle;Signal;HPM_P1;HPM_P2
2024/03/16 00:00:32;;;;;;;3.25;1.75;;;16.40;63.70;;;;;;5053307;28;20576;-63
2024/03/16 00:02:59;;;;;;;4.80;1.95;;;16.40;63.70;;;;;;5052853;28;20252;-63
2024/03/16 00:05:25;;;;;;;3.05;1.77;;;16.40;63.70;;;;;;5053221;28;20183;-63
2024/03/16 00:07:51;;;;;;;3.92;1.95;;;16.40;63.70;;;;;;5053266;28;20217;-64
2024/03/16 00:10:16;;;;;;;4.95;1.92;;;16.40;63.70;;;;;;5052536;28;20174;-63
2024/03/16 00:12:42;;;;;;;4.90;1.45;;;16.40;63.70;;;;;;5053444;28;20167;-63
2024/03/16 00:15:07;;;;;;;4.97;1.83;;;16.40;63.70;;;;;;5052963;28;20179;-63
2024/03/16 00:17:33;;;;;;;4.47;2.20;;;16.40;63.70;;;;;;5052576;28;20175;-63
2024/03/16 00:19:58;;;;;;;4.07;1.83;;;16.40;63.70;;;;;;5053004;28;20210;-63
2024/03/16 00:22:24;;;;;;;2.60;1.42;;;16.40;63.60;;;;;;5052769;28;20249;-63
2024/03/16 00:24:49;;;;;;;4.72;1.73;;;16.40;63.70;;;;;;5052629;28;20303;-63
2024/03/16 00:27:15;;;;;;;6.00;1.77;;;16.40;63.60;;;;;;5052742;28;20572;-63
2024/03/16 00:29:40;;;;;;;5.82;1.90;;;16.40;63.70;;;;;;5053285;28;20175;-63
2024/03/16 00:32:06;;;;;;;2.58;1.45;;;16.40;63.60;;;;;;5052239;28;20171;-64
2024/03/16 00:34:32;;;;;;;5.82;2.28;;;16.40;63.60;;;;;;5052702;28;20178;-64
2024/03/16 00:37:04;;;;;;;5.03;1.90;;;16.40;63.60;;;;;;5052747;28;20631;-64
2024/03/16 00:39:32;;;;;;;3.63;2.22;;;16.40;63.70;;;;;;5051526;28;20755;-64
2024/03/16 00:41:58;;;;;;;2.75;1.50;;;16.40;63.70;;;;;;5052879;28;20179;-64
2024/03/16 00:44:25;;;;;;;4.85;1.95;;;16.40;63.60;;;;;;5051878;28;20171;-64
2024/03/16 00:46:51;;;;;;;3.72;1.88;;;16.40;63.60;;;;;;5052532;28;20642;-63
2024/03/16 00:49:16;;;;;;;5.93;2.42;;;16.40;63.60;;;;;;5052298;28;20262;-63
2024/03/16 00:51:42;;;;;;;5.45;2.05;;;16.40;63.60;;;;;;5051718;28;20222;-63
2024/03/16 00:54:11;;;;;;;5.40;2.17;;;16.40;63.60;;;;;;5052249;28;20179;-64
2024/03/16 00:56:37;;;;;;;4.95;2.17;;;16.40;63.60;;;;;;5052643;28;20266;-64
2024/03/16 00:59:02;;;;;;;3.75;1.75;;;16.40;63.60;;;;;;5051321;28;20257;-63
2024/03/16 01:01:29;;;;;;;3.65;1.80;;;16.40;63.60;;;;;;5052259;28;20952;-64
2024/03/16 01:03:55;;;;;;;4.82;2.03;;;16.40;63.60;;;;;;5052232;28;20182;-63
2024/03/16 01:06:20;;;;;;;4.55;2.10;;;16.40;63.60;;;;;;5051269;28;20190;-63
2024/03/16 01:08:46;;;;;;;4.75;2.13;;;16.30;64.40;;;;;;5052457;28;20656;-63
2024/03/16 01:11:11;;;;;;;3.70;2.15;;;16.40;63.60;;;;;;5051758;28;20539;-62
2024/03/16 01:13:38;;;;;;;4.50;2.35;;;16.40;63.60;;;;;;5051627;28;20186;-63
2024/03/16 01:16:04;;;;;;;4.60;2.38;;;16.40;63.60;;;;;;5052141;28;20179;-63
2024/03/16 01:18:30;;;;;;;4.75;2.00;;;16.30;63.60;;;;;;5051709;28;20178;-63
2024/03/16 01:20:55;;;;;;;4.85;2.28;;;16.30;63.60;;;;;;5051157;28;20248;-63
2024/03/16 01:23:21;;;;;;;4.38;2.20;;;16.40;63.60;;;;;;5051910;28;20194;-63
2024/03/16 01:25:47;;;;;;;5.10;2.03;;;16.40;63.70;;;;;;5051956;28;20175;-65
2024/03/16 01:28:12;;;;;;;4.10;2.28;;;16.30;63.60;;;;;;5050932;28;20179;-63
2024/03/16 01:30:38;;;;;;;4.85;2.22;;;16.30;63.70;;;;;;5051872;28;20637;-63
2024/03/16 01:33:03;;;;;;;5.97;2.88;;;16.30;63.60;;;;;;5051766;28;20254;-63
2024/03/16 01:35:29;;;;;;;7.68;3.00;;;16.30;63.70;;;;;;5050877;28;20178;-64
2024/03/16 01:37:54;;;;;;;7.63;2.63;;;16.30;63.60;;;;;;5051636;28;20175;-64
2024/03/16 01:40:24;;;;;;;5.18;2.03;;;16.40;63.70;;;;;;5051380;28;20280;-63
2024/03/16 01:42:52;;;;;;;4.88;1.90;;;16.30;63.70;;;;;;5051212;28;20250;-63
2024/03/16 01:45:18;;;;;;;4.55;2.17;;;16.30;63.70;;;;;;5051551;28;20183;-63
2024/03/16 01:47:43;;;;;;;3.00;1.80;;;16.30;63.70;;;;;;5051071;28;20584;-63
2024/03/16 01:50:09;;;;;;;8.77;2.88;;;16.30;63.70;;;;;;5051253;28;20178;-63
2024/03/16 01:52:35;;;;;;;5.35;2.28;;;16.30;63.70;;;;;;5052081;28;20191;-63
2024/03/16 01:55:00;;;;;;;5.95;2.50;;;16.30;63.70;;;;;;5051200;28;20183;-63
2024/03/16 01:57:26;;;;;;;6.03;2.13;;;16.30;63.70;;;;;;5051424;28;20618;-63
2024/03/16 01:59:51;;;;;;;6.10;2.60;;;16.30;63.70;;;;;;5051659;28;20206;-63
2024/03/16 02:02:33;;;;;;;6.22;2.20;;;16.30;63.70;;;;;;5050690;28;20167;-62
2024/03/16 02:05:03;;;;;;;7.45;2.60;;;16.30;63.70;;;;;;5051577;28;20189;-63
2024/03/16 02:07:29;;;;;;;5.35;2.28;;;16.30;63.70;;;;;;5051540;28;20183;-63
2024/03/16 02:09:55;;;;;;;3.85;2.55;;;16.30;63.70;;;;;;5050913;28;20638;-63
2024/03/16 02:12:20;;;;;;;6.72;2.15;;;16.30;63.70;;;;;;5053861;28;20692;-62
2024/03/16 02:14:46;;;;;;;3.88;2.20;;;16.30;63.70;;;;;;5055519;28;20179;-62
2024/03/16 02:17:11;;;;;;;3.80;2.47;;;16.30;63.70;;;;;;5054325;28;20210;-63
2024/03/16 02:19:37;;;;;;;5.78;2.13;;;16.30;63.80;;;;;;5055521;28;20227;-62
2024/03/16 02:22:06;;;;;;;4.55;2.65;;;16.30;63.70;;;;;;5055471;28;20174;-63
2024/03/16 02:24:34;;;;;;;5.30;2.47;;;16.30;63.70;;;;;;5054486;28;20278;-60
2024/03/16 02:27:00;;;;;;;5.03;2.67;;;16.30;63.70;;;;;;5054182;28;20183;-64
2024/03/16 02:29:27;;;;;;;7.47;2.92;;;16.30;63.80;;;;;;5054926;28;20258;-61
2024/03/16 02:31:53;;;;;;;6.32;2.72;;;16.30;63.80;;;;;;5054393;28;20203;-64
2024/03/16 02:34:19;;;;;;;6.40;2.60;;;16.30;63.80;;;;;;5055056;28;20175;-62
2024/03/16 02:36:44;;;;;;;5.57;2.50;;;16.30;63.80;;;;;;5054692;28;20183;-64
2024/03/16 02:39:11;;;;;;;4.82;2.40;;;16.20;63.70;;;;;;5054413;28;20682;-64
2024/03/16 02:41:37;;;;;;;5.70;2.90;;;16.30;63.70;;;;;;5054924;28;20219;-65
2024/03/16 02:44:02;;;;;;;6.97;2.90;;;16.20;63.70;;;;;;5054197;28;20198;-64
2024/03/16 02:46:28;;;;;;;5.68;2.58;;;16.30;64.60;;;;;;5054933;28;20771;-64
2024/03/16 02:48:54;;;;;;;3.80;2.50;;;16.30;63.80;;;;;;5054738;28;20199;-63
2024/03/16 02:51:20;;;;;;;8.32;3.13;;;16.20;63.70;;;;;;5054041;28;20194;-63
2024/03/16 02:53:46;;;;;;;4.57;2.60;;;16.20;63.80;;;;;;5054944;28;20175;-63
2024/03/16 02:56:12;;;;;;;5.28;2.60;;;16.20;63.80;;;;;;5054457;28;20183;-63
2024/03/16 02:58:39;;;;;;;3.92;2.40;;;16.20;63.80;;;;;;5054071;28;20175;-63
2024/03/16 03:01:04;;;;;;;7.03;2.92;;;16.20;63.80;;;;;;5053491;28;20335;-63
2024/03/16 03:03:30;;;;;;;5.07;2.88;;;16.20;63.80;;;;;;5054480;28;20626;-63
2024/03/16 03:05:55;;;;;;;7.10;3.05;;;16.20;63.90;;;;;;5054012;28;20175;-63
2024/03/16 03:08:21;;;;;;;5.15;2.65;;;16.20;63.90;;;;;;5054321;28;20181;-63
2024/03/16 03:10:47;;;;;;;8.65;2.90;;;16.20;63.90;;;;;;5054549;28;20179;-63
2024/03/16 03:13:12;;;;;;;5.68;2.85;;;16.20;64.00;;;;;;5053313;28;20602;-62
2024/03/16 03:15:38;;;;;;;6.95;3.20;;;16.20;64.00;;;;;;5054369;28;20279;-62
2024/03/16 03:18:03;;;;;;;5.32;3.10;;;16.20;64.00;;;;;;5054451;28;20262;-63
2024/03/16 03:20:30;;;;;;;5.75;2.78;;;16.20;64.80;;;;;;5053343;28;20700;-63
2024/03/16 03:22:56;;;;;;;6.38;2.92;;;16.20;64.00;;;;;;5053950;28;20254;-63
2024/03/16 03:25:21;;;;;;;5.80;3.13;;;16.20;64.00;;;;;;5054039;28;20226;-63
2024/03/16 03:27:47;;;;;;;5.93;2.78;;;16.20;64.00;;;;;;5053485;28;20653;-63
2024/03/16 03:30:13;;;;;;;3.70;2.55;;;16.20;64.00;;;;;;5053921;28;20537;-63
2024/03/16 03:32:38;;;;;;;4.35;2.60;;;16.20;64.10;;;;;;5054098;28;20184;-63
2024/03/16 03:35:05;;;;;;;4.82;2.75;;;16.20;64.00;;;;;;5053341;28;20183;-63
2024/03/16 03:37:30;;;;;;;5.55;2.78;;;16.20;64.00;;;;;;5053693;28;20617;-63
2024/03/16 03:39:56;;;;;;;4.72;2.83;;;16.20;64.10;;;;;;5053661;28;20231;-64
2024/03/16 03:42:25;;;;;;;7.05;3.03;;;16.20;64.00;;;;;;5052859;28;20182;-64
2024/03/16 03:45:14;;;;;;;6.18;2.80;;;16.20;64.10;;;;;;5054081;28;20183;-63
2024/03/16 03:48:00;;;;;;;5.70;2.65;;;16.20;64.00;;;;;;5053323;28;20183;-63
2024/03/16 03:50:29;;;;;;;5.45;2.92;;;16.10;64.00;;;;;;5053476;28;20179;-63
2024/03/16 03:53:01;;;;;;;5.57;2.95;;;16.10;64.00;;;;;;5053652;28;20167;-63
2024/03/16 03:55:26;;;;;;;4.53;3.15;;;16.10;64.00;;;;;;5052934;28;20237;-64
2024/03/16 03:57:52;;;;;;;5.72;2.95;;;16.10;64.00;;;;;;5053668;28;20637;-64
2024/03/16 04:00:18;;;;;;;6.25;3.05;;;16.10;64.00;;;;;;5053313;28;20246;-63
2024/03/16 04:02:44;;;;;;;4.43;2.70;;;16.10;64.00;;;;;;5053017;28;20179;-63
2024/03/16 04:05:10;;;;;;;4.45;2.70;;;16.10;64.00;;;;;;5053059;28;20176;-63
2024/03/16 04:07:35;;;;;;;5.03;2.72;;;16.10;64.00;;;;;;5053360;28;20175;-64
2024/03/16 04:10:01;;;;;;;3.80;2.47;;;16.10;64.00;;;;;;5052775;28;20175;-63
2024/03/16 04:12:26;;;;;;;4.85;2.80;;;16.10;64.00;;;;;;5053276;28;20589;-62
2024/03/16 04:14:55;;;;;;;3.97;2.55;;;16.10;64.00;;;;;;5053141;28;20179;-62
2024/03/16 04:17:20;;;;;;;4.95;2.28;;;16.10;64.00;;;;;;5052241;28;20691;-63
2024/03/16 04:19:47;;;;;;;3.83;2.33;;;16.10;64.00;;;;;;5053115;28;20211;-63
2024/03/16 04:22:13;;;;;;;5.50;2.38;;;16.10;64.80;;;;;;5052503;28;20179;-63
2024/03/16 04:24:38;;;;;;;3.72;2.15;;;16.10;63.90;;;;;;5052992;28;20189;-63
2024/03/16 04:27:04;;;;;;;3.65;2.30;;;16.10;63.90;;;;;;5052945;28;20179;-62
2024/03/16 04:29:32;;;;;;;4.47;2.17;;;16.10;63.90;;;;;;5052111;28;20171;-63
2024/03/16 04:31:58;;;;;;;4.88;2.33;;;16.10;63.90;;;;;;5052928;28;20167;-64
2024/03/16 04:34:25;;;;;;;4.00;2.45;;;16.10;63.90;;;;;;5051785;28;20225;-63
2024/03/16 04:36:53;;;;;;;3.25;1.70;;;16.10;63.90;;;;;;5052307;28;20249;-63
2024/03/16 04:39:22;;;;;;;4.03;1.80;;;16.10;63.90;;;;;;5052303;28;20560;-64
2024/03/16 04:41:49;;;;;;;2.65;1.88;;;16.10;63.90;;;;;;5052909;28;20176;-64
2024/03/16 04:44:15;;;;;;;2.83;1.63;;;16.10;63.80;;;;;;5051708;28;20179;-64
2024/03/16 04:46:40;;;;;;;5.70;2.05;;;16.10;63.90;;;;;;5052717;28;20544;-63
2024/03/16 04:49:07;;;;;;;3.92;1.73;;;16.10;63.80;;;;;;5052539;28;20178;-63
2024/03/16 04:51:32;;;;;;;2.58;1.48;;;16.00;63.80;;;;;;5051870;28;20179;-63
2024/03/16 04:53:58;;;;;;;2.42;1.65;;;16.10;63.80;;;;;;5052680;28;20535;-64
2024/03/16 04:56:24;;;;;;;3.25;1.92;;;16.00;63.70;;;;;;5052395;28;20545;-64
2024/03/16 04:58:49;;;;;;;3.90;1.52;;;16.00;63.70;;;;;;5051659;28;20614;-63
2024/03/16 05:01:16;;;;;;;2.65;1.80;;;16.00;63.70;;;;;;5051983;28;20221;-64
2024/03/16 05:03:42;;;;;;;2.88;1.73;;;16.00;63.70;;;;;;5052302;28;20176;-64
2024/03/16 05:06:07;;;;;;;2.58;1.55;;;16.00;63.70;;;;;;5051636;28;20175;-64
2024/03/16 05:08:33;;;;;;;2.38;1.10;;;16.00;63.70;;;;;;5052257;28;20258;-63
2024/03/16 05:10:59;;;;;;;2.78;1.73;;;16.00;63.70;;;;;;5052137;28;20179;-63
2024/03/16 05:13:27;;;;;;;1.42;1.33;;;16.00;63.70;;;;;;5051226;28;20186;-63
2024/03/16 05:15:53;;;;;;;1.65;1.30;;;16.00;63.60;;;;;;5052163;28;20222;-63
2024/03/16 05:18:19;;;;;;;1.40;1.15;;;16.00;63.60;;;;;;5051810;28;20179;-63
2024/03/16 05:20:44;;;;;;;2.10;1.40;;;16.00;63.60;;;;;;5051613;28;20249;-63
2024/03/16 05:23:10;;;;;;;2.63;1.70;;;16.00;63.60;;;;;;5051770;28;20174;-62
2024/03/16 05:25:37;;;;;;;2.67;1.48;;;16.00;63.60;;;;;;5051486;28;20183;-63
2024/03/16 05:28:03;;;;;;;2.25;1.20;;;16.00;63.60;;;;;;5052020;28;20199;-63
2024/03/16 05:30:28;;;;;;;1.88;1.30;;;16.00;63.60;;;;;;5051721;28;21060;-63
2024/03/16 05:32:54;;;;;;;2.33;1.40;;;16.00;63.60;;;;;;5051110;28;20175;-63
2024/03/16 05:35:19;;;;;;;2.28;1.40;;;16.00;63.60;;;;;;5051826;28;20645;-63
2024/03/16 05:37:45;;;;;;;3.67;1.20;;;16.00;63.60;;;;;;5052015;28;20171;-64
2024/03/16 05:40:10;;;;;;;1.88;1.00;;;16.00;63.60;;;;;;5050664;28;20322;-64
2024/03/16 05:42:39;;;;;;;3.03;1.20;;;16.00;63.60;;;;;;5051888;28;20258;-64
2024/03/16 05:45:06;;;;;;;1.73;1.33;;;15.90;63.50;;;;;;5051680;28;20178;-63
2024/03/16 05:47:32;;;;;;;2.13;0.98;;;15.90;63.60;;;;;;5050788;28;20190;-63
2024/03/16 05:49:58;;;;;;;2.45;1.33;;;15.90;63.50;;;;;;5051809;28;20197;-63
2024/03/16 05:52:23;;;;;;;2.03;1.20;;;16.00;63.60;;;;;;5051577;28;20254;-63
2024/03/16 05:54:49;;;;;;;1.10;0.77;;;15.90;63.50;;;;;;5051064;28;20167;-63
2024/03/16 05:57:14;;;;;;;1.83;1.00;;;15.90;63.50;;;;;;5051281;28;20262;-63
2024/03/16 05:59:40;;;;;;;2.53;1.10;;;15.90;63.50;;;;;;5051609;28;20206;-63
2024/03/16 06:02:05;;;;;;;0.80;0.80;;;15.90;63.40;;;;;;5050693;28;20687;-63
2024/03/16 06:04:31;;;;;;;1.85;1.17;;;15.90;63.40;;;;;;5051547;28;20191;-63
2024/03/16 06:06:56;;;;;;;3.13;1.00;;;15.90;63.40;;;;;;5051635;28;20171;-63
2024/03/16 06:09:22;;;;;;;1.10;1.00;;;15.90;63.40;;;;;;5050661;28;20179;-63
2024/03/16 06:11:47;;;;;;;1.40;1.02;;;15.90;63.40;;;;;;5051623;28;20175;-63
2024/03/16 06:14:13;;;;;;;1.23;0.93;;;15.90;63.40;;;;;;5051114;28;20637;-63
2024/03/16 06:16:40;;;;;;;1.45;0.88;;;15.90;63.40;;;;;;5050689;28;20179;-62
2024/03/16 06:19:06;;;;;;;0.75;0.75;;;15.90;63.40;;;;;;5051567;28;20314;-62
2024/03/16 06:21:31;;;;;;;1.38;1.08;;;15.90;63.40;;;;;;5051313;28;20183;-63
2024/03/16 06:23:58;;;;;;;2.55;0.70;;;15.90;63.40;;;;;;5050747;28;20175;-63
2024/03/16 06:26:24;;;;;;;1.15;0.88;;;15.90;64.20;;;;;;5051163;28;20637;-62
2024/03/16 06:28:54;;;;;;;1.23;0.70;;;15.90;63.30;;;;;;5051215;28;20186;-62
2024/03/16 06:31:31;;;;;;;0.77;0.68;;;15.80;63.20;;;;;;5051417;28;20197;-63
2024/03/16 06:34:01;;;;;;;1.55;0.80;;;15.90;63.20;;;;;;5051586;28;20210;-64
2024/03/16 06:36:27;;;;;;;2.50;1.00;;;15.90;63.20;;;;;;5050643;28;20202;-64
2024/03/16 06:38:53;;;;;;;1.75;0.80;;;15.90;63.20;;;;;;5051329;28;20183;-63
2024/03/16 06:41:19;;;;;;;1.05;0.73;;;15.90;63.10;;;;;;5050875;28;20711;-63
2024/03/16 06:43:44;;;;;;;1.65;0.90;;;15.90;64.00;;;;;;5050604;28;20333;-63
2024/03/16 06:46:10;;;;;;;1.80;1.00;;;15.90;63.10;;;;;;5050885;28;20187;-63
2024/03/16 06:48:36;;;;;;;2.00;1.00;;;15.90;63.10;;;;;;5051323;28;20187;-63
2024/03/16 06:51:02;;;;;;;1.73;0.85;;;15.90;63.10;;;;;;5050490;28;20175;-63
2024/03/16 06:53:28;;;;;;;1.83;0.70;;;15.90;62.80;;;;;;5050901;28;20184;-63
2024/03/16 06:55:55;;;;;;;1.95;1.05;;;16.00;62.70;;;;;;5050970;28;20241;-63
2024/03/16 06:58:20;;;;;;;1.88;0.70;;;16.10;62.90;;;;;;5052301;28;20641;-63
2024/03/16 07:00:47;;;;;;;1.67;0.95;;;16.10;62.80;;;;;;5054658;28;20221;-63
2024/03/16 07:03:15;;;;;;;1.27;0.70;;;16.20;62.80;;;;;;5054266;28;20218;-63
2024/03/16 07:05:40;;;;;;;1.05;0.77;;;16.30;62.80;;;;;;5054077;28;20179;-63
2024/03/16 07:08:09;;;;;;;0.88;0.70;;;16.40;62.80;;;;;;5054566;28;20178;-63
2024/03/16 07:10:35;;;;;;;1.15;0.77;;;16.50;62.50;;;;;;5054499;28;20642;-63
2024/03/16 07:13:01;;;;;;;1.58;0.77;;;16.60;62.20;;;;;;5053985;28;20197;-63
2024/03/16 07:15:26;;;;;;;2.38;0.75;;;16.70;61.90;;;;;;5054164;28;20638;-62
2024/03/16 07:17:52;;;;;;;1.70;0.73;;;16.90;61.70;;;;;;5054425;28;20194;-63
2024/03/16 07:20:18;;;;;;;1.40;0.68;;;17.00;61.50;;;;;;5053367;28;20293;-63
2024/03/16 07:22:43;;;;;;;1.67;0.82;;;17.10;61.20;;;;;;5054418;28;20171;-63
2024/03/16 07:25:09;;;;;;;0.57;0.55;;;17.20;61.00;;;;;;5053091;28;20562;-63
2024/03/16 07:27:34;;;;;;;0.82;0.60;;;17.10;60.70;;;;;;5054182;28;20649;-63
2024/03/16 07:30:00;;;;;;;1.92;0.80;;;17.20;60.70;;;;;;5054266;28;20524;-63
2024/03/16 07:32:25;;;;;;;1.05;0.60;;;17.20;60.70;;;;;;5053191;28;20337;-63
2024/03/16 07:34:51;;;;;;;2.13;0.77;;;17.30;60.50;;;;;;5054137;28;20186;-64
2024/03/16 07:37:17;;;;;;;0.95;0.63;;;17.30;60.30;;;;;;5053618;28;20584;-63
2024/03/16 07:39:43;;;;;;;0.68;0.50;;;17.30;60.30;;;;;;5053040;28;20226;-63
2024/03/16 07:42:08;;;;;;;1.48;0.80;;;17.30;60.40;;;;;;5053710;28;20182;-64
2024/03/16 07:44:40;;;;;;;1.00;0.50;;;17.30;60.20;;;;;;5054044;28;20179;-63
2024/03/16 07:47:05;;;;;;;2.92;1.00;;;17.40;60.10;;;;;;5053308;28;20272;-63
2024/03/16 07:49:31;;;;;;;1.65;1.00;;;17.30;60.10;;;;;;5053509;28;20255;-63
2024/03/16 07:51:57;;;;;;;1.15;0.63;;;17.50;60.00;;;;;;5053778;28;20203;-63
2024/03/16 07:54:23;;;;;;;1.10;0.85;;;17.50;59.90;;;;;;5052673;28;20600;-63
2024/03/16 07:56:49;;;;;;;0.63;0.60;;;17.50;59.90;;;;;;5053768;28;20672;-63
2024/03/16 07:59:14;;;;;;;2.00;0.75;;;17.50;59.90;;;;;;5053344;28;20171;-62
2024/03/16 08:01:40;;;;;;;1.98;0.57;;;17.50;59.70;;;;;;5053003;28;20265;-62
2024/03/16 08:04:05;;;;;;;2.88;0.60;;;17.60;59.80;;;;;;5053391;28;20352;-64
2024/03/16 08:06:31;;;;;;;1.83;0.70;;;17.50;59.70;;;;;;5053146;28;20190;-63
2024/03/16 08:08:56;;;;;;;1.10;0.63;;;17.60;59.70;;;;;;5051453;28;20175;-62
2024/03/16 08:11:22;;;;;;;0.63;0.63;;;17.60;59.60;;;;;;5053384;28;20202;-63
2024/03/16 08:13:47;;;;;;;2.50;0.75;;;17.60;59.60;;;;;;5053321;28;20179;-62
2024/03/16 08:16:13;;;;;;;2.33;0.68;;;17.70;59.60;;;;;;5052268;28;20174;-63
2024/03/16 08:18:38;;;;;;;1.67;0.50;;;17.70;59.50;;;;;;5053399;28;20183;-62
2024/03/16 08:21:04;;;;;;;2.53;0.70;;;17.60;59.50;;;;;;5053080;28;20202;-63
2024/03/16 08:23:30;;;;;;;1.33;0.60;;;17.70;59.40;;;;;;5052114;28;20220;-63
2024/03/16 08:25:55;;;;;;;1.30;0.50;;;17.60;59.40;;;;;;5053163;28;20171;-62
2024/03/16 08:28:21;;;;;;;1.25;0.68;;;17.60;59.50;;;;;;5052934;28;20178;-62
2024/03/16 08:30:47;;;;;;;0.98;0.68;;;17.50;59.60;;;;;;5052453;28;20171;-62
2024/03/16 08:33:12;;;;;;;2.55;0.77;;;17.50;59.70;;;;;;5052537;28;20171;-62
2024/03/16 08:35:38;;;;;;;1.45;0.70;;;17.40;59.70;;;;;;5052105;28;20258;-63
2024/03/16 08:38:04;;;;;;;1.27;0.60;;;17.40;59.80;;;;;;5052795;28;20206;-63
2024/03/16 08:40:30;;;;;;;1.17;0.57;;;17.30;60.00;;;;;;5052282;28;20237;-63
2024/03/16 08:42:56;;;;;;;1.13;0.80;;;17.30;60.00;;;;;;5052160;28;20183;-62
2024/03/16 08:45:21;;;;;;;0.98;0.55;;;17.20;60.10;;;;;;5052567;28;20199;-63
2024/03/16 08:47:47;;;;;;;1.73;0.88;;;17.20;60.10;;;;;;5052646;28;20584;-62
2024/03/16 08:50:12;;;;;;;1.80;0.80;;;17.20;60.30;;;;;;5051561;28;20175;-62
2024/03/16 08:52:38;;;;;;;2.30;0.90;;;17.10;60.30;;;;;;5052651;28;20171;-62
2024/03/16 08:55:12;;;;;;;1.63;0.70;;;17.10;60.50;;;;;;5052444;28;20175;-62
2024/03/16 08:57:38;;;;;;;2.13;0.70;;;17.00;60.40;;;;;;5052300;28;20171;-62
2024/03/16 09:00:05;;;;;;;1.58;0.60;;;17.00;60.50;;;;;;5052477;28;20290;-63
2024/03/16 09:02:30;;;;;;;1.60;0.80;;;17.00;60.60;;;;;;5052288;28;20229;-62
2024/03/16 09:04:56;;;;;;;2.00;0.80;;;17.00;60.70;;;;;;5051696;28;20171;-63
2024/03/16 09:07:23;;;;;;;1.45;0.73;;;17.00;60.60;;;;;;5052078;28;20515;-63
2024/03/16 09:09:49;;;;;;;1.98;0.90;;;17.00;60.50;;;;;;5052758;28;20236;-62
2024/03/16 09:12:14;;;;;;;1.00;0.65;;;17.10;60.60;;;;;;5051178;28;20171;-62
2024/03/16 09:14:40;;;;;;;1.73;0.68;;;17.10;60.50;;;;;;5052493;28;20257;-61
2024/03/16 09:17:05;;;;;;;1.98;0.88;;;17.10;60.50;;;;;;5052100;28;20266;-62
2024/03/16 09:19:34;;;;;;;2.00;0.85;;;17.00;60.40;;;;;;5051175;28;20242;-61
2024/03/16 09:21:59;;;;;;;2.55;0.93;;;17.10;60.60;;;;;;5051815;28;20183;-62
2024/03/16 09:24:25;;;;;;;3.58;1.27;;;17.00;60.50;;;;;;5051667;28;20630;-62
2024/03/16 09:26:51;;;;;;;1.42;0.73;;;17.00;60.50;;;;;;5051359;28;20186;-61
2024/03/16 09:29:17;;;;;;;1.98;0.75;;;17.00;60.50;;;;;;5051909;28;20236;-62
2024/03/16 09:31:42;;;;;;;0.52;0.52;;;16.90;60.50;;;;;;5051372;28;20637;-62
2024/03/16 09:34:08;;;;;;;1.35;0.63;;;17.00;60.60;;;;;;5051485;28;20278;-62
2024/03/16 09:36:34;;;;;;;1.08;0.68;;;17.00;60.60;;;;;;5050728;28;20312;-63
2024/03/16 09:38:59;;;;;;;1.08;0.60;;;17.00;60.50;;;;;;5051223;28;20223;-62
2024/03/16 09:41:25;;;;;;;0.90;0.60;;;17.00;60.50;;;;;;5051301;28;20304;-63
2024/03/16 09:43:52;;;;;;;1.73;0.75;;;17.00;60.50;;;;;;5051907;28;20178;-62
2024/03/16 09:46:18;;;;;;;1.70;0.77;;;17.00;60.50;;;;;;5050922;28;20178;-62
2024/03/16 09:48:44;;;;;;;2.58;1.27;;;17.00;60.50;;;;;;5051849;28;20549;-62
2024/03/16 09:51:13;;;;;;;1.58;0.70;;;17.00;60.60;;;;;;5051257;28;20317;-61
2024/03/16 09:53:38;;;;;;;1.23;0.68;;;16.90;60.50;;;;;;5049880;28;20243;-62
2024/03/16 09:56:09;;;;;;;2.33;0.82;;;16.90;60.50;;;;;;5051882;28;20280;-62
2024/03/16 09:58:36;;;;;;;1.75;0.90;;;17.00;60.60;;;;;;5051929;28;20189;-62
2024/03/16 10:01:03;;;;;;;2.70;0.80;;;16.90;60.70;;;;;;5050888;28;20221;-61
2024/03/16 10:03:31;;;;;;;1.48;0.85;;;17.00;60.80;;;;;;5051380;28;20186;-63
2024/03/16 10:06:04;;;;;;;1.50;0.82;;;16.90;60.60;;;;;;5051518;28;20214;-62
2024/03/16 10:08:32;;;;;;;2.45;0.75;;;17.00;60.60;;;;;;5050824;28;20167;-62
2024/03/16 10:11:27;;;;;;;1.52;0.60;;;16.90;60.50;;;;;;5051646;28;20645;-61
2024/03/16 10:13:57;;;;;;;1.48;0.77;;;17.00;60.70;;;;;;5034253;28;20182;-62
2024/03/16 10:16:22;;;;;;;1.50;0.77;;;16.90;60.70;;;;;;5051200;28;20178;-62
2024/03/16 10:18:52;;;;;;;2.53;1.02;;;16.90;60.70;;;;;;5051709;28;20171;-61
2024/03/16 10:21:18;;;;;;;4.32;1.33;;;16.80;60.70;;;;;;5050418;28;20217;-62
2024/03/16 10:23:44;;;;;;;1.90;0.90;;;16.80;60.80;;;;;;5051656;28;20258;-62
2024/03/16 10:26:10;;;;;;;2.28;0.95;;;16.80;60.70;;;;;;5051147;28;20179;-61
2024/03/16 10:28:36;;;;;;;1.70;0.90;;;16.80;60.60;;;;;;5050709;28;20183;-62
2024/03/16 10:31:03;;;;;;;3.28;0.85;;;16.80;60.60;;;;;;5051454;28;20182;-62
2024/03/16 10:33:28;;;;;;;1.98;0.70;;;16.80;60.60;;;;;;5052511;28;20662;-62
2024/03/16 10:35:56;;;;;;;3.25;1.13;;;16.80;60.70;;;;;;5054634;28;20171;-62
2024/03/16 10:38:23;;;;;;;1.08;0.77;;;16.80;60.70;;;;;;5055043;28;20183;-62
2024/03/16 10:40:49;;;;;;;2.80;0.95;;;16.80;60.50;;;;;;5053691;28;20734;-62
2024/03/16 10:43:15;;;;;;;3.50;0.70;;;16.80;60.40;;;;;;5052778;28;20179;-62
2024/03/16 10:45:47;;;;;;;2.05;0.88;;;16.90;60.40;;;;;;5055253;28;20183;-62
2024/03/16 10:48:17;;;;;;;2.28;0.95;;;16.90;60.30;;;;;;5037960;28;20179;-62
2024/03/16 10:50:48;;;;;;;1.70;0.82;;;16.90;60.30;;;;;;5054369;28;20190;-62
2024/03/16 10:53:15;;;;;;;1.55;0.70;;;16.90;60.10;;;;;;5054497;28;20175;-62
2024/03/16 10:55:40;;;;;;;2.67;0.85;;;16.90;60.20;;;;;;5053470;28;20711;-62
2024/03/16 10:58:27;;;;;;;2.70;1.02;;;16.90;60.10;;;;;;5052878;28;20171;-63
2024/03/16 11:01:08;;;;;;;1.73;0.77;;;16.90;60.20;;;;;;5054832;28;20214;-62
2024/03/16 11:03:38;;;;;;;1.50;0.68;;;16.90;60.20;;;;;;5053020;28;20178;-62
2024/03/16 11:06:10;;;;;;;1.73;0.60;;;16.90;60.20;;;;;;5053453;28;20179;-62
2024/03/16 11:08:42;;;;;;;1.48;1.10;;;16.90;60.30;;;;;;5054626;28;20698;-62
2024/03/16 11:11:32;;;;;;;1.75;0.80;;;16.90;60.10;;;;;;5053661;28;20625;-62
2024/03/16 11:14:08;;;;;;;1.55;0.70;;;16.90;60.00;;;;;;5042754;28;20187;-62
2024/03/16 11:16:34;;;;;;;1.38;0.80;;;16.90;59.90;;;;;;5054393;28;20228;-62
2024/03/16 11:19:01;;;;;;;1.67;0.98;;;16.90;59.90;;;;;;5053869;28;20256;-62
2024/03/16 11:21:27;;;;;;;1.55;0.70;;;17.00;59.80;;;;;;5054180;28;20225;-62
2024/03/16 11:23:53;;;;;;;1.20;0.50;;;17.00;59.80;;;;;;5054385;28;20175;-61
2024/03/16 11:26:28;;;;;;;1.45;0.70;;;16.90;59.80;;;;;;5053170;28;20266;-62
2024/03/16 11:29:00;;;;;;;0.98;0.77;;;16.90;59.90;;;;;;5053987;28;20178;-61
2024/03/16 11:31:29;;;;;;;1.63;0.70;;;16.90;59.90;;;;;;5051924;28;20183;-62
2024/03/16 11:33:55;;;;;;;1.83;0.95;;;16.90;59.90;;;;;;5054135;28;20175;-62
2024/03/16 11:36:21;;;;;;;2.67;1.23;;;16.90;59.90;;;;;;5053886;28;20648;-63
2024/03/16 11:38:52;;;;;;;2.97;0.70;;;16.90;59.80;;;;;;5053221;28;20180;-63
2024/03/16 11:41:18;;;;;;;2.33;1.08;;;16.90;59.90;;;;;;5053552;28;20325;-62
2024/03/16 11:43:44;;;;;;;1.48;0.50;;;16.90;59.90;;;;;;5035976;28;20171;-62
2024/03/16 11:46:10;;;;;;;1.55;0.90;;;16.90;59.80;;;;;;5053008;28;20206;-62
2024/03/16 11:48:39;;;;;;;1.98;0.88;;;16.90;59.70;;;;;;5052745;28;20646;-61
2024/03/16 11:51:05;;;;;;;1.50;0.80;;;17.00;59.70;;;;;;5052560;28;20175;-62
2024/03/16 11:53:30;;;;;;;1.90;0.70;;;17.10;59.50;;;;;;5052747;28;20186;-62
2024/03/16 11:55:56;;;;;;;2.53;0.80;;;17.00;59.30;;;;;;5053579;28;20302;-62
2024/03/16 11:58:22;;;;;;;1.83;0.68;;;17.00;59.30;;;;;;5052038;28;20229;-63
2024/03/16 12:00:47;;;;;;;2.10;0.80;;;17.00;59.50;;;;;;5051617;28;20214;-62
2024/03/16 12:03:14;;;;;;;1.45;0.63;;;17.00;59.60;;;;;;5052080;28;20175;-62
2024/03/16 12:05:39;;;;;;;3.13;1.10;;;17.00;59.50;;;;;;5052496;28;20175;-62
2024/03/16 12:08:05;;;;;;;1.88;0.73;;;17.00;59.60;;;;;;5034967;28;20174;-63
2024/03/16 12:10:33;;;;;;;1.40;0.60;;;17.00;59.60;;;;;;5051959;28;20179;-62
2024/03/16 12:13:00;;;;;;;1.23;0.57;;;17.00;59.50;;;;;;5053261;28;20232;-62
2024/03/16 12:15:27;;;;;;;2.53;0.75;;;17.00;59.50;;;;;;5052575;28;20179;-62
2024/03/16 12:17:53;;;;;;;2.22;0.70;;;17.00;59.40;;;;;;5053283;28;20205;-62
2024/03/16 12:20:19;;;;;;;1.13;0.68;;;17.10;59.30;;;;;;5052760;28;20673;-62
2024/03/16 12:22:49;;;;;;;0.95;0.73;;;17.10;59.30;;;;;;5052653;28;20179;-62
2024/03/16 12:25:14;;;;;;;1.85;0.90;;;17.00;59.30;;;;;;5052713;28;20641;-62
2024/03/16 12:27:49;;;;;;;1.35;0.82;;;17.00;59.40;;;;;;5052680;28;20179;-62
2024/03/16 12:30:15;;;;;;;1.40;0.73;;;17.00;59.30;;;;;;5052747;28;20212;-62
2024/03/16 12:32:41;;;;;;;2.28;1.13;;;17.00;59.40;;;;;;5052962;28;20179;-62
2024/03/16 12:35:09;;;;;;;2.58;0.85;;;17.00;59.30;;;;;;5052258;28;20183;-63
2024/03/16 12:37:37;;;;;;;1.83;0.80;;;17.00;59.30;;;;;;5053051;28;20309;-62
2024/03/16 12:40:03;;;;;;;2.88;0.90;;;17.00;59.30;;;;;;5052529;28;20705;-63
2024/03/16 12:42:29;;;;;;;1.30;0.85;;;17.00;59.30;;;;;;5052062;28;20183;-63
2024/03/16 12:44:57;;;;;;;1.45;0.73;;;17.00;59.30;;;;;;5052843;28;20175;-62